NKS2 KMCO-KEWR
Flight info
| Callsign | NKS2 |
|---|---|
| Flight time | 2h 20m |
| Altitude | 35000 |
| Route | FATHE4 VIYAP Q87 ALWZZ OGRAE Q99 QUART PHLBO4 |
| Aircraft | A321/M-SDE3FGHIRWY/LB1 |
Departure
| Time | 2026-05-05 01:33 |
|---|---|
| Airport | Orlando International Airport (KMCO) |
Arrival
| Time | 2026-05-05 03:53 |
|---|---|
| Airport | Newark Liberty International Airport (KEWR) |
| Time | Latitude | Longitude | Altitude | Speed | Heading |
|---|---|---|---|---|---|
| 2026-05-05 01:09 | 28.43499 | -81.31517 | 102 ft | 0 kts | 69° |
| 2026-05-05 01:22 | 28.43493 | -81.31543 | 102 ft | 4 kts | 76° |
| 2026-05-05 01:22 | 28.43485 | -81.31573 | 100 ft | 4 kts | 73° |
| 2026-05-05 01:23 | 28.43478 | -81.31600 | 100 ft | 2 kts | 73° |
| 2026-05-05 01:23 | 28.43477 | -81.31605 | 102 ft | 0 kts | 73° |
| 2026-05-05 01:25 | 28.43481 | -81.31603 | 101 ft | 1 kts | 38° |
| 2026-05-05 01:25 | 28.43501 | -81.31613 | 102 ft | 4 kts | 295° |
| 2026-05-05 01:26 | 28.43501 | -81.31619 | 102 ft | 0 kts | 278° |
| 2026-05-05 01:26 | 28.43502 | -81.31625 | 102 ft | 2 kts | 278° |
| 2026-05-05 01:26 | 28.43506 | -81.31662 | 102 ft | 7 kts | 278° |
| 2026-05-05 01:26 | 28.43511 | -81.31732 | 102 ft | 10 kts | 268° |
| 2026-05-05 01:27 | 28.43488 | -81.31804 | 103 ft | 10 kts | 239° |
| 2026-05-05 01:27 | 28.43430 | -81.31883 | 102 ft | 16 kts | 229° |
| 2026-05-05 01:27 | 28.43357 | -81.31988 | 101 ft | 17 kts | 206° |
| 2026-05-05 01:27 | 28.43252 | -81.31996 | 100 ft | 14 kts | 180° |
| 2026-05-05 01:28 | 28.43154 | -81.31997 | 101 ft | 14 kts | 180° |
| 2026-05-05 01:28 | 28.43056 | -81.31994 | 102 ft | 14 kts | 178° |
| 2026-05-05 01:28 | 28.42954 | -81.31991 | 102 ft | 16 kts | 179° |
| 2026-05-05 01:28 | 28.42835 | -81.31990 | 104 ft | 16 kts | 180° |
| 2026-05-05 01:29 | 28.42722 | -81.31989 | 107 ft | 17 kts | 179° |
| 2026-05-05 01:29 | 28.42602 | -81.31988 | 109 ft | 18 kts | 179° |
| 2026-05-05 01:29 | 28.42476 | -81.31987 | 109 ft | 18 kts | 179° |
| 2026-05-05 01:29 | 28.42348 | -81.31984 | 109 ft | 18 kts | 179° |
| 2026-05-05 01:30 | 28.42220 | -81.31981 | 109 ft | 19 kts | 179° |
| 2026-05-05 01:30 | 28.42083 | -81.31981 | 106 ft | 21 kts | 180° |
| 2026-05-05 01:30 | 28.41932 | -81.31978 | 103 ft | 19 kts | 179° |
| 2026-05-05 01:30 | 28.41800 | -81.31977 | 102 ft | 16 kts | 179° |
| 2026-05-05 01:31 | 28.41689 | -81.31978 | 101 ft | 10 kts | 194° |
| 2026-05-05 01:31 | 28.41680 | -81.32036 | 100 ft | 8 kts | 278° |
| 2026-05-05 01:31 | 28.41689 | -81.32129 | 100 ft | 17 kts | 275° |
| 2026-05-05 01:31 | 28.41721 | -81.32199 | 101 ft | 1 kts | 357° |
| 2026-05-05 01:32 | 28.41818 | -81.32198 | 100 ft | 43 kts | 1° |
| 2026-05-05 01:32 | 28.42352 | -81.32200 | 110 ft | 108 kts | 360° |
| 2026-05-05 01:32 | 28.43295 | -81.32208 | 104 ft | 160 kts | 359° |
| 2026-05-05 01:32 | 28.44489 | -81.32226 | 514 ft | 170 kts | 4° |
| 2026-05-05 01:33 | 28.45689 | -81.32259 | 1114 ft | 176 kts | 5° |
| 2026-05-05 01:33 | 28.46526 | -81.32288 | 1414 ft | 187 kts | 3° |
| 2026-05-05 01:33 | 28.47848 | -81.32344 | 1891 ft | 193 kts | 3° |
| 2026-05-05 01:33 | 28.49201 | -81.32415 | 2397 ft | 196 kts | 2° |
| 2026-05-05 01:34 | 28.50567 | -81.32494 | 2926 ft | 197 kts | 2° |
| 2026-05-05 01:34 | 28.52431 | -81.32513 | 3395 ft | 214 kts | 4° |
| 2026-05-05 01:34 | 28.54003 | -81.32467 | 3571 ft | 238 kts | 4° |
| 2026-05-05 01:34 | 28.55139 | -81.32415 | 3875 ft | 246 kts | 7° |
| 2026-05-05 01:35 | 28.56892 | -81.32242 | 4195 ft | 265 kts | 6° |
| 2026-05-05 01:35 | 28.58755 | -81.32045 | 4768 ft | 272 kts | 4° |
| 2026-05-05 01:35 | 28.60658 | -81.31848 | 5417 ft | 276 kts | 3° |
| 2026-05-05 01:35 | 28.62594 | -81.31656 | 6045 ft | 282 kts | 3° |
| 2026-05-05 01:36 | 28.64564 | -81.31424 | 6670 ft | 287 kts | 4° |
| 2026-05-05 01:36 | 28.66554 | -81.31161 | 7325 ft | 289 kts | 5° |
| 2026-05-05 01:36 | 28.68556 | -81.30885 | 8016 ft | 290 kts | 4° |
| 2026-05-05 01:36 | 28.70566 | -81.30610 | 8715 ft | 291 kts | 4° |
| 2026-05-05 01:37 | 28.72586 | -81.30337 | 9383 ft | 294 kts | 4° |
| 2026-05-05 01:37 | 28.74621 | -81.30065 | 10049 ft | 295 kts | 4° |
| 2026-05-05 01:37 | 28.76709 | -81.29789 | 10339 ft | 312 kts | 4° |
| 2026-05-05 01:37 | 28.78939 | -81.29503 | 10460 ft | 333 kts | 4° |
| 2026-05-05 01:38 | 28.81280 | -81.29205 | 10591 ft | 352 kts | 4° |
| 2026-05-05 01:38 | 28.83748 | -81.28921 | 10980 ft | 360 kts | 0° |
| 2026-05-05 01:38 | 28.86258 | -81.29026 | 11504 ft | 363 kts | 353° |
| 2026-05-05 01:38 | 28.88786 | -81.29248 | 12075 ft | 366 kts | 354° |
| 2026-05-05 01:39 | 28.91335 | -81.29468 | 12648 ft | 369 kts | 354° |
| 2026-05-05 01:39 | 28.93908 | -81.29687 | 13219 ft | 373 kts | 355° |
| 2026-05-05 01:39 | 28.96506 | -81.29906 | 13801 ft | 376 kts | 355° |
| 2026-05-05 01:39 | 28.99123 | -81.30128 | 14319 ft | 379 kts | 354° |
| 2026-05-05 01:40 | 29.01762 | -81.30377 | 14837 ft | 382 kts | 353° |
| 2026-05-05 01:40 | 29.04422 | -81.30663 | 15365 ft | 385 kts | 352° |
| 2026-05-05 01:40 | 29.07093 | -81.30969 | 15901 ft | 387 kts | 351° |
| 2026-05-05 01:40 | 29.09747 | -81.31281 | 16439 ft | 390 kts | 351° |
| 2026-05-05 01:41 | 29.12458 | -81.31571 | 16961 ft | 393 kts | 352° |
| 2026-05-05 01:41 | 29.15199 | -81.31782 | 17485 ft | 396 kts | 353° |
| 2026-05-05 01:41 | 29.17964 | -81.31941 | 18004 ft | 399 kts | 353° |
| 2026-05-05 01:41 | 29.20751 | -81.32078 | 18487 ft | 402 kts | 353° |
| 2026-05-05 01:42 | 29.23554 | -81.32215 | 18947 ft | 405 kts | 353° |
| 2026-05-05 01:42 | 29.26377 | -81.32359 | 19418 ft | 406 kts | 353° |
| 2026-05-05 01:42 | 29.29204 | -81.32509 | 19911 ft | 407 kts | 352° |
| 2026-05-05 01:42 | 29.32038 | -81.32670 | 20388 ft | 409 kts | 352° |
| 2026-05-05 01:43 | 29.34887 | -81.32841 | 20849 ft | 411 kts | 352° |
| 2026-05-05 01:43 | 29.37705 | -81.33015 | 21290 ft | 412 kts | 352° |
| 2026-05-05 01:43 | 29.40573 | -81.33195 | 21725 ft | 414 kts | 352° |
| 2026-05-05 01:43 | 29.43456 | -81.33377 | 22157 ft | 415 kts | 351° |
| 2026-05-05 01:44 | 29.46351 | -81.33557 | 22579 ft | 417 kts | 351° |
| 2026-05-05 01:44 | 29.49256 | -81.33733 | 22989 ft | 419 kts | 351° |
| 2026-05-05 01:44 | 29.52157 | -81.33907 | 23390 ft | 421 kts | 351° |
| 2026-05-05 01:44 | 29.55089 | -81.34082 | 23788 ft | 423 kts | 351° |
| 2026-05-05 01:45 | 29.58030 | -81.34258 | 24109 ft | 424 kts | 351° |
| 2026-05-05 01:45 | 29.60985 | -81.34436 | 24437 ft | 426 kts | 351° |
| 2026-05-05 01:45 | 29.63954 | -81.34616 | 24760 ft | 428 kts | 351° |
| 2026-05-05 01:45 | 29.66932 | -81.34796 | 25087 ft | 430 kts | 351° |
| 2026-05-05 01:46 | 29.69883 | -81.34969 | 25402 ft | 431 kts | 351° |
| 2026-05-05 01:46 | 29.72887 | -81.35139 | 25712 ft | 433 kts | 351° |
| 2026-05-05 01:46 | 29.75905 | -81.35307 | 26025 ft | 435 kts | 351° |
| 2026-05-05 01:46 | 29.78933 | -81.35476 | 26332 ft | 437 kts | 351° |
| 2026-05-05 01:47 | 29.81974 | -81.35646 | 26638 ft | 438 kts | 350° |
| 2026-05-05 01:47 | 29.85027 | -81.35820 | 26955 ft | 440 kts | 350° |
| 2026-05-05 01:47 | 29.88092 | -81.36000 | 27254 ft | 442 kts | 350° |
| 2026-05-05 01:47 | 29.91168 | -81.36183 | 27531 ft | 443 kts | 349° |
| 2026-05-05 01:48 | 29.94253 | -81.36365 | 27812 ft | 445 kts | 349° |
| 2026-05-05 01:48 | 29.97353 | -81.36543 | 28093 ft | 447 kts | 349° |
| 2026-05-05 01:48 | 30.00421 | -81.36717 | 28383 ft | 448 kts | 349° |
| 2026-05-05 01:48 | 30.03544 | -81.36891 | 28670 ft | 450 kts | 349° |
| 2026-05-05 01:49 | 30.06678 | -81.37065 | 28955 ft | 452 kts | 349° |
| 2026-05-05 01:49 | 30.09821 | -81.37243 | 29231 ft | 453 kts | 349° |
| 2026-05-05 01:49 | 30.12972 | -81.37428 | 29632 ft | 453 kts | 348° |
| 2026-05-05 01:49 | 30.16110 | -81.37613 | 30093 ft | 450 kts | 348° |
| 2026-05-05 01:50 | 30.19224 | -81.37794 | 30467 ft | 448 kts | 348° |
| 2026-05-05 01:50 | 30.22330 | -81.37974 | 30813 ft | 446 kts | 348° |
| 2026-05-05 01:50 | 30.25421 | -81.38154 | 31151 ft | 444 kts | 348° |
| 2026-05-05 01:50 | 30.28497 | -81.38333 | 31486 ft | 442 kts | 348° |
| 2026-05-05 01:51 | 30.31525 | -81.38507 | 31814 ft | 441 kts | 348° |
| 2026-05-05 01:51 | 30.34584 | -81.38682 | 32143 ft | 439 kts | 348° |
| 2026-05-05 01:51 | 30.37633 | -81.38855 | 32458 ft | 438 kts | 348° |
| 2026-05-05 01:51 | 30.40671 | -81.39027 | 32787 ft | 436 kts | 348° |
| 2026-05-05 01:52 | 30.43697 | -81.39202 | 33103 ft | 435 kts | 348° |
| 2026-05-05 01:52 | 30.46712 | -81.39379 | 33415 ft | 433 kts | 348° |
| 2026-05-05 01:52 | 30.49720 | -81.39549 | 33723 ft | 432 kts | 348° |
| 2026-05-05 01:52 | 30.52722 | -81.39708 | 34036 ft | 431 kts | 348° |
| 2026-05-05 01:53 | 30.55714 | -81.39862 | 34297 ft | 430 kts | 348° |
| 2026-05-05 01:53 | 30.58703 | -81.40018 | 34526 ft | 429 kts | 348° |
| 2026-05-05 01:53 | 30.61688 | -81.40177 | 34744 ft | 429 kts | 348° |
| 2026-05-05 01:53 | 30.64672 | -81.40336 | 34949 ft | 429 kts | 348° |
| 2026-05-05 01:54 | 30.67615 | -81.40491 | 35113 ft | 430 kts | 348° |
| 2026-05-05 01:54 | 30.70604 | -81.40650 | 35118 ft | 429 kts | 348° |
| 2026-05-05 01:54 | 30.76569 | -81.40963 | 35114 ft | 429 kts | 348° |
| 2026-05-05 01:55 | 30.82532 | -81.41286 | 35110 ft | 429 kts | 348° |
| 2026-05-05 01:55 | 30.88500 | -81.41601 | 35107 ft | 429 kts | 348° |
| 2026-05-05 01:56 | 30.94421 | -81.41912 | 35109 ft | 429 kts | 348° |
| 2026-05-05 01:56 | 31.00389 | -81.42228 | 35135 ft | 430 kts | 348° |
| 2026-05-05 01:57 | 31.06365 | -81.42552 | 35131 ft | 430 kts | 348° |
| 2026-05-05 01:57 | 31.12347 | -81.42873 | 35128 ft | 430 kts | 348° |
| 2026-05-05 01:58 | 31.18332 | -81.43195 | 35125 ft | 431 kts | 348° |
| 2026-05-05 01:58 | 31.24321 | -81.43158 | 35188 ft | 443 kts | 360° |
| 2026-05-05 01:59 | 31.27358 | -81.42315 | 35121 ft | 455 kts | 11° |
| 2026-05-05 01:59 | 31.30301 | -81.40845 | 35114 ft | 462 kts | 16° |
| 2026-05-05 01:59 | 31.36137 | -81.37664 | 35107 ft | 463 kts | 16° |
| 2026-05-05 02:00 | 31.41989 | -81.34486 | 35108 ft | 464 kts | 16° |
| 2026-05-05 02:00 | 31.47812 | -81.31321 | 35112 ft | 465 kts | 16° |
| 2026-05-05 02:01 | 31.53677 | -81.28125 | 35145 ft | 465 kts | 17° |
| 2026-05-05 02:01 | 31.59554 | -81.24927 | 35121 ft | 466 kts | 17° |
| 2026-05-05 02:02 | 31.65442 | -81.21720 | 35117 ft | 467 kts | 17° |
| 2026-05-05 02:02 | 31.71338 | -81.18501 | 35104 ft | 468 kts | 17° |
| 2026-05-05 02:03 | 31.77196 | -81.15296 | 35132 ft | 468 kts | 18° |
| 2026-05-05 02:03 | 31.83099 | -81.12065 | 35117 ft | 468 kts | 18° |
| 2026-05-05 02:04 | 31.89001 | -81.08833 | 35107 ft | 468 kts | 18° |
| 2026-05-05 02:04 | 31.94902 | -81.05587 | 35102 ft | 468 kts | 18° |
| 2026-05-05 02:05 | 32.00797 | -81.02337 | 35101 ft | 468 kts | 18° |
| 2026-05-05 02:05 | 32.06646 | -80.99086 | 35095 ft | 467 kts | 19° |
| 2026-05-05 02:06 | 32.12518 | -80.95786 | 35095 ft | 468 kts | 19° |
| 2026-05-05 02:06 | 32.18394 | -80.92482 | 35124 ft | 468 kts | 19° |
| 2026-05-05 02:07 | 32.24278 | -80.89180 | 35118 ft | 469 kts | 19° |
| 2026-05-05 02:07 | 32.30137 | -80.85897 | 35141 ft | 470 kts | 20° |
| 2026-05-05 02:08 | 32.36046 | -80.82572 | 35127 ft | 471 kts | 20° |
| 2026-05-05 02:08 | 32.41962 | -80.79233 | 35126 ft | 471 kts | 20° |
| 2026-05-05 02:09 | 32.47879 | -80.75890 | 35129 ft | 471 kts | 20° |
| 2026-05-05 02:09 | 32.53760 | -80.72570 | 35129 ft | 472 kts | 20° |
| 2026-05-05 02:10 | 32.59686 | -80.69216 | 35144 ft | 472 kts | 21° |
| 2026-05-05 02:10 | 32.65609 | -80.65848 | 35134 ft | 472 kts | 21° |
| 2026-05-05 02:11 | 32.71533 | -80.62478 | 35137 ft | 472 kts | 21° |
| 2026-05-05 02:11 | 32.77437 | -80.59041 | 35127 ft | 473 kts | 22° |
| 2026-05-05 02:12 | 32.86208 | -80.53767 | 35144 ft | 473 kts | 22° |
| 2026-05-05 02:13 | 32.92082 | -80.50249 | 35129 ft | 473 kts | 22° |
| 2026-05-05 02:13 | 32.97966 | -80.46753 | 35124 ft | 473 kts | 22° |
| 2026-05-05 02:14 | 33.03811 | -80.43279 | 35126 ft | 473 kts | 22° |
| 2026-05-05 02:14 | 33.09693 | -80.39770 | 35124 ft | 473 kts | 22° |
| 2026-05-05 02:15 | 33.15571 | -80.36253 | 35121 ft | 473 kts | 22° |
| 2026-05-05 02:15 | 33.21450 | -80.32721 | 35121 ft | 473 kts | 22° |
| 2026-05-05 02:16 | 33.27324 | -80.29182 | 35122 ft | 473 kts | 22° |
| 2026-05-05 02:16 | 33.33161 | -80.25670 | 35142 ft | 473 kts | 22° |
| 2026-05-05 02:17 | 33.39037 | -80.22138 | 35136 ft | 472 kts | 22° |
| 2026-05-05 02:17 | 33.44908 | -80.18598 | 35135 ft | 472 kts | 22° |
| 2026-05-05 02:18 | 33.50774 | -80.15053 | 35128 ft | 472 kts | 22° |
| 2026-05-05 02:18 | 33.53707 | -80.13278 | 35126 ft | 473 kts | 22° |
| 2026-05-05 02:19 | 33.58972 | -80.10094 | 35147 ft | 473 kts | 22° |
| 2026-05-05 02:19 | 33.64841 | -80.06532 | 35138 ft | 472 kts | 22° |
| 2026-05-05 02:20 | 33.70705 | -80.02967 | 35141 ft | 472 kts | 22° |
| 2026-05-05 02:20 | 33.76521 | -79.99430 | 35118 ft | 472 kts | 22° |
| 2026-05-05 02:21 | 33.82382 | -79.95855 | 35130 ft | 472 kts | 22° |
| 2026-05-05 02:21 | 33.88239 | -79.92285 | 35120 ft | 472 kts | 22° |
| 2026-05-05 02:22 | 33.94087 | -79.88705 | 35114 ft | 472 kts | 22° |
| 2026-05-05 02:22 | 33.99902 | -79.85149 | 35120 ft | 472 kts | 22° |
| 2026-05-05 02:23 | 34.05748 | -79.81575 | 35133 ft | 471 kts | 22° |
| 2026-05-05 02:23 | 34.11596 | -79.77985 | 35126 ft | 471 kts | 22° |
| 2026-05-05 02:24 | 34.17433 | -79.74391 | 35122 ft | 471 kts | 22° |
| 2026-05-05 02:24 | 34.23264 | -79.70802 | 35123 ft | 470 kts | 22° |
| 2026-05-05 02:25 | 34.29058 | -79.67235 | 35109 ft | 470 kts | 22° |
| 2026-05-05 02:25 | 34.34885 | -79.63633 | 35123 ft | 469 kts | 22° |
| 2026-05-05 02:26 | 34.40693 | -79.60038 | 35115 ft | 468 kts | 22° |
| 2026-05-05 02:26 | 34.46490 | -79.56452 | 35101 ft | 468 kts | 22° |
| 2026-05-05 02:27 | 34.52244 | -79.52885 | 35102 ft | 467 kts | 22° |
| 2026-05-05 02:27 | 34.58016 | -79.49252 | 35118 ft | 468 kts | 23° |
| 2026-05-05 02:28 | 34.63713 | -79.45410 | 35121 ft | 468 kts | 25° |
| 2026-05-05 02:28 | 34.69446 | -79.41705 | 35106 ft | 463 kts | 16° |
| 2026-05-05 02:29 | 34.75548 | -79.39834 | 35102 ft | 453 kts | 4° |
| 2026-05-05 02:29 | 34.81765 | -79.38546 | 35119 ft | 454 kts | 4° |
| 2026-05-05 02:30 | 34.87988 | -79.37229 | 35114 ft | 454 kts | 4° |
| 2026-05-05 02:30 | 34.94204 | -79.35893 | 35069 ft | 454 kts | 4° |
| 2026-05-05 02:31 | 35.00422 | -79.34553 | 35068 ft | 454 kts | 4° |
| 2026-05-05 02:31 | 35.06598 | -79.33234 | 35078 ft | 454 kts | 4° |
| 2026-05-05 02:32 | 35.12819 | -79.31907 | 35074 ft | 454 kts | 4° |
| 2026-05-05 02:32 | 35.19041 | -79.30578 | 35094 ft | 454 kts | 4° |
| 2026-05-05 02:33 | 35.25261 | -79.29236 | 35091 ft | 454 kts | 4° |
| 2026-05-05 02:33 | 35.31481 | -79.27885 | 35099 ft | 454 kts | 4° |
| 2026-05-05 02:34 | 35.37664 | -79.26551 | 35089 ft | 454 kts | 4° |
| 2026-05-05 02:34 | 35.43891 | -79.25206 | 35078 ft | 454 kts | 4° |
| 2026-05-05 02:35 | 35.50120 | -79.23859 | 35078 ft | 454 kts | 4° |
| 2026-05-05 02:35 | 35.56348 | -79.22517 | 35078 ft | 454 kts | 4° |
| 2026-05-05 02:36 | 35.62534 | -79.21173 | 35077 ft | 454 kts | 4° |
| 2026-05-05 02:36 | 35.68759 | -79.19816 | 35074 ft | 454 kts | 4° |
| 2026-05-05 02:37 | 35.74894 | -79.17741 | 35063 ft | 465 kts | 19° |
| 2026-05-05 02:37 | 35.77742 | -79.15815 | 35078 ft | 471 kts | 30° |
| 2026-05-05 02:37 | 35.80426 | -79.13481 | 35075 ft | 472 kts | 31° |
| 2026-05-05 02:38 | 35.85748 | -79.08821 | 35056 ft | 472 kts | 31° |
| 2026-05-05 02:38 | 35.91109 | -79.04151 | 35057 ft | 472 kts | 30° |
| 2026-05-05 02:39 | 35.96479 | -78.99468 | 35051 ft | 472 kts | 30° |
| 2026-05-05 02:39 | 36.01842 | -78.94784 | 35060 ft | 472 kts | 30° |
| 2026-05-05 02:40 | 36.07206 | -78.90098 | 35056 ft | 472 kts | 30° |
| 2026-05-05 02:40 | 36.12529 | -78.85430 | 35060 ft | 472 kts | 30° |
| 2026-05-05 02:41 | 36.17882 | -78.80720 | 35057 ft | 472 kts | 31° |
| 2026-05-05 02:41 | 36.23228 | -78.75998 | 35078 ft | 472 kts | 31° |
| 2026-05-05 02:42 | 36.28578 | -78.71279 | 35052 ft | 472 kts | 31° |
| 2026-05-05 02:42 | 36.33928 | -78.66562 | 35047 ft | 472 kts | 31° |
| 2026-05-05 02:43 | 36.39242 | -78.61867 | 35045 ft | 472 kts | 31° |
| 2026-05-05 02:43 | 36.44588 | -78.57127 | 35067 ft | 472 kts | 30° |
| 2026-05-05 02:44 | 36.50045 | -78.52636 | 35058 ft | 470 kts | 27° |
| 2026-05-05 02:44 | 36.55617 | -78.48394 | 35041 ft | 469 kts | 26° |
| 2026-05-05 02:45 | 36.61143 | -78.44176 | 35030 ft | 469 kts | 27° |
| 2026-05-05 02:45 | 36.66675 | -78.39849 | 35041 ft | 470 kts | 27° |
| 2026-05-05 02:46 | 36.72190 | -78.35476 | 35053 ft | 469 kts | 27° |
| 2026-05-05 02:46 | 36.77695 | -78.31108 | 35047 ft | 469 kts | 27° |
| 2026-05-05 02:47 | 36.83200 | -78.26762 | 35034 ft | 468 kts | 27° |
| 2026-05-05 02:47 | 36.88678 | -78.22448 | 35050 ft | 468 kts | 27° |
| 2026-05-05 02:48 | 36.94175 | -78.18095 | 35023 ft | 467 kts | 27° |
| 2026-05-05 02:48 | 36.99657 | -78.13732 | 35019 ft | 467 kts | 27° |
| 2026-05-05 02:49 | 37.05134 | -78.09368 | 35016 ft | 466 kts | 27° |
| 2026-05-05 02:49 | 37.10573 | -78.05036 | 35014 ft | 466 kts | 27° |
| 2026-05-05 02:50 | 37.16041 | -78.00682 | 35029 ft | 465 kts | 28° |
| 2026-05-05 02:50 | 37.21498 | -77.96318 | 35023 ft | 465 kts | 28° |
| 2026-05-05 02:51 | 37.26942 | -77.91956 | 35015 ft | 464 kts | 28° |
| 2026-05-05 02:51 | 37.32375 | -77.87592 | 35013 ft | 463 kts | 28° |
| 2026-05-05 02:52 | 37.37765 | -77.83259 | 35019 ft | 463 kts | 28° |
| 2026-05-05 02:52 | 37.43186 | -77.78899 | 35025 ft | 462 kts | 28° |
| 2026-05-05 02:53 | 37.48595 | -77.74534 | 35017 ft | 462 kts | 28° |
| 2026-05-05 02:53 | 37.53999 | -77.70164 | 35016 ft | 461 kts | 28° |
| 2026-05-05 02:54 | 37.59410 | -77.65801 | 35019 ft | 462 kts | 28° |
| 2026-05-05 02:54 | 37.64782 | -77.61467 | 35007 ft | 462 kts | 28° |
| 2026-05-05 02:55 | 37.70190 | -77.57088 | 35012 ft | 462 kts | 28° |
| 2026-05-05 02:55 | 37.75605 | -77.52697 | 35004 ft | 463 kts | 28° |
| 2026-05-05 02:56 | 37.81019 | -77.48292 | 34998 ft | 463 kts | 28° |
| 2026-05-05 02:56 | 37.86401 | -77.43907 | 34994 ft | 463 kts | 28° |
| 2026-05-05 02:57 | 37.91823 | -77.39495 | 34990 ft | 464 kts | 28° |
| 2026-05-05 02:57 | 37.97243 | -77.35063 | 34986 ft | 464 kts | 28° |
| 2026-05-05 02:58 | 38.02671 | -77.30614 | 34965 ft | 465 kts | 28° |
| 2026-05-05 02:58 | 38.08074 | -77.26199 | 34956 ft | 465 kts | 28° |
| 2026-05-05 02:59 | 38.13517 | -77.21740 | 34955 ft | 466 kts | 28° |
| 2026-05-05 02:59 | 38.18970 | -77.17269 | 34963 ft | 467 kts | 29° |
| 2026-05-05 03:00 | 38.24415 | -77.12773 | 34965 ft | 467 kts | 29° |
| 2026-05-05 03:00 | 38.29851 | -77.08268 | 34971 ft | 467 kts | 31° |
| 2026-05-05 03:01 | 38.35087 | -77.03439 | 34969 ft | 468 kts | 34° |
| 2026-05-05 03:01 | 38.40224 | -76.98323 | 34985 ft | 468 kts | 35° |
| 2026-05-05 03:02 | 38.45360 | -76.93234 | 34986 ft | 467 kts | 34° |
| 2026-05-05 03:02 | 38.50524 | -76.88234 | 34977 ft | 465 kts | 34° |
| 2026-05-05 03:03 | 38.55693 | -76.83279 | 34975 ft | 464 kts | 34° |
| 2026-05-05 03:03 | 38.60811 | -76.78345 | 34992 ft | 464 kts | 34° |
| 2026-05-05 03:04 | 38.65941 | -76.73358 | 34977 ft | 463 kts | 34° |
| 2026-05-05 03:04 | 38.71055 | -76.68368 | 34969 ft | 462 kts | 34° |
| 2026-05-05 03:05 | 38.76165 | -76.63386 | 34964 ft | 461 kts | 34° |
| 2026-05-05 03:05 | 38.81267 | -76.58401 | 34975 ft | 461 kts | 34° |
| 2026-05-05 03:06 | 38.86335 | -76.53449 | 34969 ft | 461 kts | 34° |
| 2026-05-05 03:06 | 38.91427 | -76.48462 | 34972 ft | 460 kts | 34° |
| 2026-05-05 03:07 | 38.96515 | -76.43474 | 34954 ft | 460 kts | 34° |
| 2026-05-05 03:07 | 39.01564 | -76.38491 | 34961 ft | 461 kts | 35° |
| 2026-05-05 03:08 | 39.06520 | -76.33251 | 34963 ft | 462 kts | 39° |
| 2026-05-05 03:08 | 39.11250 | -76.27637 | 34498 ft | 464 kts | 41° |
| 2026-05-05 03:08 | 39.13598 | -76.24788 | 32980 ft | 466 kts | 41° |
| 2026-05-05 03:09 | 39.15978 | -76.21925 | 31303 ft | 470 kts | 41° |
| 2026-05-05 03:09 | 39.18374 | -76.19083 | 29960 ft | 467 kts | 40° |
| 2026-05-05 03:09 | 39.20762 | -76.16280 | 28518 ft | 461 kts | 40° |
| 2026-05-05 03:09 | 39.23112 | -76.13533 | 27558 ft | 447 kts | 41° |
| 2026-05-05 03:10 | 39.25314 | -76.10960 | 27229 ft | 421 kts | 40° |
| 2026-05-05 03:10 | 39.27434 | -76.08479 | 26736 ft | 402 kts | 40° |
| 2026-05-05 03:10 | 39.29478 | -76.06087 | 26449 ft | 398 kts | 40° |
| 2026-05-05 03:10 | 39.31550 | -76.03664 | 26099 ft | 405 kts | 40° |
| 2026-05-05 03:11 | 39.33655 | -76.01196 | 25741 ft | 412 kts | 40° |
| 2026-05-05 03:11 | 39.35805 | -75.98673 | 25354 ft | 419 kts | 40° |
| 2026-05-05 03:11 | 39.37961 | -75.96138 | 24999 ft | 419 kts | 41° |
| 2026-05-05 03:11 | 39.40110 | -75.93605 | 24653 ft | 417 kts | 40° |
| 2026-05-05 03:12 | 39.42220 | -75.91111 | 24290 ft | 415 kts | 41° |
| 2026-05-05 03:12 | 39.44344 | -75.88592 | 23932 ft | 414 kts | 41° |
| 2026-05-05 03:12 | 39.46460 | -75.86083 | 23576 ft | 412 kts | 41° |
| 2026-05-05 03:12 | 39.48572 | -75.83579 | 23181 ft | 410 kts | 40° |
| 2026-05-05 03:13 | 39.50675 | -75.81094 | 22832 ft | 409 kts | 40° |
| 2026-05-05 03:13 | 39.52772 | -75.78617 | 22471 ft | 408 kts | 41° |
| 2026-05-05 03:13 | 39.54860 | -75.76143 | 22126 ft | 406 kts | 41° |
| 2026-05-05 03:13 | 39.56938 | -75.73677 | 21842 ft | 405 kts | 41° |
| 2026-05-05 03:14 | 39.59011 | -75.71215 | 21503 ft | 403 kts | 41° |
| 2026-05-05 03:14 | 39.61075 | -75.68759 | 21129 ft | 402 kts | 41° |
| 2026-05-05 03:14 | 39.63108 | -75.66336 | 20800 ft | 401 kts | 41° |
| 2026-05-05 03:14 | 39.65157 | -75.63889 | 20457 ft | 400 kts | 41° |
| 2026-05-05 03:15 | 39.67202 | -75.61443 | 20106 ft | 399 kts | 41° |
| 2026-05-05 03:15 | 39.69241 | -75.59008 | 19729 ft | 398 kts | 41° |
| 2026-05-05 03:15 | 39.71267 | -75.56580 | 19304 ft | 396 kts | 41° |
| 2026-05-05 03:15 | 39.73285 | -75.54151 | 18920 ft | 395 kts | 41° |
| 2026-05-05 03:16 | 39.75293 | -75.51730 | 18518 ft | 393 kts | 41° |
| 2026-05-05 03:16 | 39.77297 | -75.49311 | 18099 ft | 392 kts | 42° |
| 2026-05-05 03:16 | 39.79265 | -75.46937 | 17690 ft | 390 kts | 41° |
| 2026-05-05 03:16 | 39.81247 | -75.44546 | 17294 ft | 387 kts | 41° |
| 2026-05-05 03:17 | 39.83211 | -75.42175 | 16897 ft | 384 kts | 41° |
| 2026-05-05 03:17 | 39.85153 | -75.39824 | 16516 ft | 380 kts | 41° |
| 2026-05-05 03:17 | 39.87078 | -75.37485 | 16130 ft | 377 kts | 41° |
| 2026-05-05 03:17 | 39.88985 | -75.35168 | 15750 ft | 374 kts | 41° |
| 2026-05-05 03:18 | 39.90882 | -75.32866 | 15375 ft | 371 kts | 40° |
| 2026-05-05 03:18 | 39.92763 | -75.30583 | 15002 ft | 368 kts | 40° |
| 2026-05-05 03:18 | 39.94629 | -75.28318 | 14628 ft | 365 kts | 40° |
| 2026-05-05 03:18 | 39.96458 | -75.26101 | 14276 ft | 363 kts | 40° |
| 2026-05-05 03:19 | 40.00125 | -75.21642 | 13508 ft | 358 kts | 40° |
| 2026-05-05 03:19 | 40.01937 | -75.19428 | 13139 ft | 356 kts | 40° |
| 2026-05-05 03:19 | 40.03739 | -75.17229 | 12778 ft | 354 kts | 40° |
| 2026-05-05 03:20 | 40.05536 | -75.15037 | 12418 ft | 352 kts | 40° |
| 2026-05-05 03:20 | 40.07301 | -75.12880 | 12198 ft | 342 kts | 40° |
| 2026-05-05 03:20 | 40.09005 | -75.10790 | 12079 ft | 330 kts | 39° |
| 2026-05-05 03:20 | 40.10650 | -75.08773 | 11874 ft | 318 kts | 39° |
| 2026-05-05 03:21 | 40.12221 | -75.06847 | 11167 ft | 312 kts | 39° |
| 2026-05-05 03:21 | 40.13788 | -75.04931 | 10801 ft | 307 kts | 39° |
| 2026-05-05 03:21 | 40.15344 | -75.03028 | 10518 ft | 305 kts | 39° |
| 2026-05-05 03:21 | 40.16894 | -75.01132 | 10236 ft | 305 kts | 39° |
| 2026-05-05 03:22 | 40.18440 | -74.99236 | 9934 ft | 304 kts | 39° |
| 2026-05-05 03:22 | 40.19979 | -74.97350 | 9646 ft | 303 kts | 39° |
| 2026-05-05 03:22 | 40.21519 | -74.95462 | 9369 ft | 303 kts | 39° |
| 2026-05-05 03:22 | 40.23052 | -74.93578 | 9085 ft | 302 kts | 39° |
| 2026-05-05 03:23 | 40.24583 | -74.91692 | 8794 ft | 302 kts | 39° |
| 2026-05-05 03:23 | 40.26079 | -74.89813 | 8521 ft | 302 kts | 41° |
| 2026-05-05 03:23 | 40.27538 | -74.87833 | 8247 ft | 302 kts | 44° |
| 2026-05-05 03:23 | 40.28968 | -74.85814 | 7968 ft | 302 kts | 44° |
| 2026-05-05 03:24 | 40.30380 | -74.83791 | 7877 ft | 302 kts | 45° |
| 2026-05-05 03:24 | 40.31804 | -74.81754 | 7785 ft | 303 kts | 44° |
| 2026-05-05 03:24 | 40.33230 | -74.79724 | 7699 ft | 303 kts | 44° |
| 2026-05-05 03:24 | 40.34659 | -74.77698 | 7607 ft | 302 kts | 44° |
| 2026-05-05 03:25 | 40.36069 | -74.75705 | 7451 ft | 294 kts | 44° |
| 2026-05-05 03:25 | 40.37428 | -74.73782 | 7365 ft | 291 kts | 44° |
| 2026-05-05 03:25 | 40.38807 | -74.71833 | 7298 ft | 292 kts | 44° |
| 2026-05-05 03:25 | 40.40190 | -74.69881 | 7206 ft | 292 kts | 44° |
| 2026-05-05 03:26 | 40.41672 | -74.68086 | 7106 ft | 289 kts | 31° |
| 2026-05-05 03:26 | 40.43409 | -74.66826 | 7013 ft | 283 kts | 16° |
| 2026-05-05 03:26 | 40.45284 | -74.66149 | 6907 ft | 278 kts | 5° |
| 2026-05-05 03:26 | 40.47182 | -74.65656 | 6811 ft | 276 kts | 6° |
| 2026-05-05 03:27 | 40.49032 | -74.65161 | 6682 ft | 267 kts | 6° |
| 2026-05-05 03:27 | 40.50852 | -74.64674 | 6628 ft | 268 kts | 6° |
| 2026-05-05 03:27 | 40.52680 | -74.64185 | 6549 ft | 268 kts | 6° |
| 2026-05-05 03:27 | 40.54485 | -74.63702 | 6467 ft | 269 kts | 6° |
| 2026-05-05 03:28 | 40.56319 | -74.63212 | 6379 ft | 269 kts | 6° |
| 2026-05-05 03:28 | 40.58151 | -74.62719 | 6288 ft | 268 kts | 6° |
| 2026-05-05 03:28 | 40.59952 | -74.62232 | 6163 ft | 260 kts | 6° |
| 2026-05-05 03:28 | 40.61704 | -74.61758 | 6089 ft | 257 kts | 6° |
| 2026-05-05 03:29 | 40.63460 | -74.61289 | 6025 ft | 258 kts | 6° |
| 2026-05-05 03:29 | 40.65220 | -74.60822 | 5943 ft | 258 kts | 6° |
| 2026-05-05 03:29 | 40.66977 | -74.60353 | 5860 ft | 258 kts | 6° |
| 2026-05-05 03:29 | 40.68714 | -74.59886 | 5773 ft | 258 kts | 6° |
| 2026-05-05 03:30 | 40.70476 | -74.59414 | 5683 ft | 259 kts | 6° |
| 2026-05-05 03:30 | 40.72245 | -74.58940 | 5609 ft | 259 kts | 6° |
| 2026-05-05 03:30 | 40.74008 | -74.58466 | 5534 ft | 259 kts | 6° |
| 2026-05-05 03:30 | 40.75786 | -74.57989 | 5440 ft | 261 kts | 6° |
| 2026-05-05 03:31 | 40.77564 | -74.57508 | 5355 ft | 261 kts | 6° |
| 2026-05-05 03:31 | 40.79344 | -74.57026 | 5286 ft | 262 kts | 6° |
| 2026-05-05 03:31 | 40.81125 | -74.56541 | 5200 ft | 262 kts | 7° |
| 2026-05-05 03:31 | 40.82907 | -74.56056 | 5112 ft | 261 kts | 7° |
| 2026-05-05 03:32 | 40.84615 | -74.55195 | 5025 ft | 267 kts | 31° |
| 2026-05-05 03:32 | 40.85949 | -74.53530 | 4941 ft | 270 kts | 57° |
| 2026-05-05 03:32 | 40.86720 | -74.51294 | 4856 ft | 268 kts | 76° |
| 2026-05-05 03:32 | 40.87342 | -74.48967 | 4768 ft | 269 kts | 72° |
| 2026-05-05 03:33 | 40.87909 | -74.46630 | 4656 ft | 265 kts | 77° |
| 2026-05-05 03:33 | 40.88390 | -74.44308 | 4554 ft | 258 kts | 79° |
| 2026-05-05 03:33 | 40.88828 | -74.42070 | 4480 ft | 243 kts | 79° |
| 2026-05-05 03:33 | 40.89233 | -74.39992 | 4413 ft | 222 kts | 80° |
| 2026-05-05 03:34 | 40.89604 | -74.38102 | 4300 ft | 204 kts | 80° |
| 2026-05-05 03:34 | 40.89954 | -74.36323 | 4191 ft | 199 kts | 81° |
| 2026-05-05 03:34 | 40.90296 | -74.34563 | 4085 ft | 197 kts | 80° |
| 2026-05-05 03:34 | 40.90666 | -74.32840 | 3999 ft | 199 kts | 72° |
| 2026-05-05 03:35 | 40.91214 | -74.31167 | 4010 ft | 200 kts | 67° |
| 2026-05-05 03:35 | 40.91812 | -74.29506 | 3997 ft | 200 kts | 67° |
| 2026-05-05 03:35 | 40.92424 | -74.27859 | 3999 ft | 199 kts | 66° |
| 2026-05-05 03:35 | 40.93040 | -74.26216 | 3997 ft | 200 kts | 66° |
| 2026-05-05 03:36 | 40.93656 | -74.24565 | 3999 ft | 200 kts | 66° |
| 2026-05-05 03:36 | 40.94267 | -74.22909 | 3996 ft | 200 kts | 66° |
| 2026-05-05 03:36 | 40.94881 | -74.21250 | 4008 ft | 200 kts | 66° |
| 2026-05-05 03:36 | 40.95667 | -74.19732 | 3994 ft | 200 kts | 52° |
| 2026-05-05 03:37 | 40.96542 | -74.18339 | 3999 ft | 200 kts | 49° |
| 2026-05-05 03:37 | 40.97509 | -74.17007 | 4008 ft | 201 kts | 39° |
| 2026-05-05 03:37 | 40.98600 | -74.15832 | 4008 ft | 202 kts | 37° |
| 2026-05-05 03:37 | 40.99707 | -74.14701 | 4000 ft | 200 kts | 36° |
| 2026-05-05 03:38 | 41.00874 | -74.13740 | 3990 ft | 195 kts | 9° |
| 2026-05-05 03:38 | 41.02188 | -74.13497 | 3994 ft | 188 kts | 355° |
| 2026-05-05 03:38 | 41.03494 | -74.13459 | 4001 ft | 187 kts | 353° |
| 2026-05-05 03:38 | 41.04783 | -74.13532 | 3990 ft | 183 kts | 341° |
| 2026-05-05 03:39 | 41.06014 | -74.13889 | 3989 ft | 180 kts | 336° |
| 2026-05-05 03:39 | 41.07212 | -74.14298 | 3995 ft | 180 kts | 335° |
| 2026-05-05 03:39 | 41.08319 | -74.14936 | 3980 ft | 166 kts | 307° |
| 2026-05-05 03:39 | 41.08811 | -74.16186 | 3990 ft | 148 kts | 268° |
| 2026-05-05 03:40 | 41.08650 | -74.17487 | 4000 ft | 142 kts | 249° |
| 2026-05-05 03:40 | 41.08322 | -74.18709 | 3992 ft | 140 kts | 246° |
| 2026-05-05 03:40 | 41.07973 | -74.19911 | 3993 ft | 140 kts | 246° |
| 2026-05-05 03:40 | 41.07614 | -74.21107 | 4001 ft | 140 kts | 245° |
| 2026-05-05 03:41 | 41.07259 | -74.22310 | 3981 ft | 141 kts | 246° |
| 2026-05-05 03:41 | 41.06896 | -74.23510 | 3992 ft | 142 kts | 245° |
| 2026-05-05 03:41 | 41.06538 | -74.24729 | 3989 ft | 142 kts | 246° |
| 2026-05-05 03:41 | 41.06180 | -74.25950 | 3993 ft | 142 kts | 246° |
| 2026-05-05 03:42 | 41.05825 | -74.27158 | 4001 ft | 139 kts | 245° |
| 2026-05-05 03:42 | 41.05423 | -74.28317 | 3992 ft | 139 kts | 230° |
| 2026-05-05 03:42 | 41.04554 | -74.28851 | 3997 ft | 146 kts | 193° |
| 2026-05-05 03:42 | 41.03527 | -74.28865 | 3996 ft | 148 kts | 185° |
| 2026-05-05 03:43 | 41.02498 | -74.28795 | 4002 ft | 148 kts | 185° |
| 2026-05-05 03:43 | 41.01488 | -74.28692 | 3993 ft | 148 kts | 184° |
| 2026-05-05 03:43 | 41.00462 | -74.28513 | 3987 ft | 154 kts | 172° |
| 2026-05-05 03:43 | 40.99471 | -74.27858 | 3999 ft | 162 kts | 159° |
| 2026-05-05 03:44 | 40.98509 | -74.27074 | 4005 ft | 162 kts | 158° |
| 2026-05-05 03:44 | 40.97555 | -74.26279 | 3993 ft | 162 kts | 158° |
| 2026-05-05 03:44 | 40.96546 | -74.25354 | 4022 ft | 191 kts | 151° |
| 2026-05-05 03:44 | 40.95511 | -74.24143 | 3996 ft | 203 kts | 144° |
| 2026-05-05 03:45 | 40.94597 | -74.22881 | 3982 ft | 176 kts | 143° |
| 2026-05-05 03:45 | 40.93839 | -74.21757 | 3974 ft | 153 kts | 142° |
| 2026-05-05 03:45 | 40.93200 | -74.20750 | 3975 ft | 133 kts | 142° |
| 2026-05-05 03:45 | 40.92543 | -74.19724 | 4048 ft | 161 kts | 143° |
| 2026-05-05 03:46 | 40.91795 | -74.18598 | 4278 ft | 163 kts | 142° |
| 2026-05-05 03:46 | 40.91062 | -74.17451 | 4313 ft | 169 kts | 141° |
| 2026-05-05 03:46 | 40.90283 | -74.16200 | 4277 ft | 186 kts | 139° |
| 2026-05-05 03:46 | 40.89436 | -74.14837 | 4153 ft | 191 kts | 139° |
| 2026-05-05 03:47 | 40.88650 | -74.13571 | 3964 ft | 165 kts | 141° |
| 2026-05-05 03:47 | 40.87912 | -74.12531 | 3663 ft | 147 kts | 149° |
| 2026-05-05 03:47 | 40.87160 | -74.11694 | 3326 ft | 137 kts | 156° |
| 2026-05-05 03:47 | 40.86390 | -74.11048 | 2985 ft | 129 kts | 164° |
| 2026-05-05 03:48 | 40.85587 | -74.10593 | 2662 ft | 122 kts | 173° |
| 2026-05-05 03:48 | 40.84790 | -74.10363 | 2381 ft | 113 kts | 181° |
| 2026-05-05 03:48 | 40.84040 | -74.10234 | 2180 ft | 104 kts | 182° |
| 2026-05-05 03:48 | 40.83273 | -74.10132 | 2033 ft | 121 kts | 183° |
| 2026-05-05 03:49 | 40.82415 | -74.10155 | 2070 ft | 125 kts | 188° |
| 2026-05-05 03:49 | 40.81525 | -74.10242 | 2115 ft | 130 kts | 191° |
| 2026-05-05 03:49 | 40.80623 | -74.10336 | 2188 ft | 130 kts | 192° |
| 2026-05-05 03:49 | 40.79740 | -74.10513 | 2250 ft | 130 kts | 196° |
| 2026-05-05 03:50 | 40.78873 | -74.10790 | 2277 ft | 129 kts | 201° |
| 2026-05-05 03:50 | 40.78061 | -74.11280 | 2046 ft | 126 kts | 210° |
| 2026-05-05 03:50 | 40.77314 | -74.11856 | 1920 ft | 123 kts | 211° |
| 2026-05-05 03:50 | 40.76568 | -74.12426 | 1863 ft | 125 kts | 210° |
| 2026-05-05 03:51 | 40.75759 | -74.12891 | 1457 ft | 129 kts | 200° |
| 2026-05-05 03:51 | 40.74901 | -74.13237 | 1208 ft | 129 kts | 200° |
| 2026-05-05 03:51 | 40.74082 | -74.13757 | 1103 ft | 133 kts | 210° |
| 2026-05-05 03:51 | 40.73249 | -74.14366 | 941 ft | 139 kts | 206° |
| 2026-05-05 03:52 | 40.72348 | -74.14888 | 672 ft | 144 kts | 203° |
| 2026-05-05 03:52 | 40.71446 | -74.15446 | 397 ft | 147 kts | 205° |
| 2026-05-05 03:52 | 40.70543 | -74.16053 | 171 ft | 146 kts | 204° |
| 2026-05-05 03:52 | 40.69647 | -74.16608 | 35 ft | 133 kts | 204° |
| 2026-05-05 03:53 | 40.68963 | -74.17037 | 22 ft | 72 kts | 206° |
| 2026-05-05 03:53 | 40.68724 | -74.17199 | 23 ft | 27 kts | 208° |
| 2026-05-05 03:53 | 40.68690 | -74.17326 | 24 ft | 13 kts | 296° |
| 2026-05-05 03:53 | 40.68692 | -74.17332 | 24 ft | 0 kts | 297° |
| 2026-05-05 03:56 | 40.68691 | -74.17331 | 24 ft | 0 kts | 297° |
| 2026-05-05 03:56 | 40.68716 | -74.17394 | 21 ft | 13 kts | 297° |
| 2026-05-05 03:57 | 40.68796 | -74.17425 | 22 ft | 14 kts | 19° |
| 2026-05-05 03:57 | 40.68879 | -74.17379 | 22 ft | 11 kts | 24° |
| 2026-05-05 03:57 | 40.68953 | -74.17335 | 22 ft | 12 kts | 24° |
| 2026-05-05 03:57 | 40.69005 | -74.17297 | 23 ft | 13 kts | 30° |
| 2026-05-05 03:58 | 40.69091 | -74.17237 | 22 ft | 15 kts | 26° |
| 2026-05-05 03:58 | 40.69185 | -74.17177 | 22 ft | 16 kts | 26° |
| 2026-05-05 03:58 | 40.69251 | -74.17181 | 22 ft | 8 kts | 302° |
| 2026-05-05 03:58 | 40.69280 | -74.17248 | 22 ft | 9 kts | 299° |
| 2026-05-05 03:59 | 40.69301 | -74.17296 | 22 ft | 6 kts | 299° |
| 2026-05-05 03:59 | 40.69306 | -74.17308 | 22 ft | 0 kts | 299° |
| 2026-05-05 03:59 | 40.69306 | -74.17309 | 22 ft | 0 kts | 299° |
| 2026-05-05 03:59 | 40.69310 | -74.17319 | 22 ft | 2 kts | 299° |
| 2026-05-05 04:00 | 40.69324 | -74.17332 | 22 ft | 3 kts | 341° |
| 2026-05-05 04:00 | 40.69347 | -74.17330 | 23 ft | 4 kts | 22° |
| 2026-05-05 04:00 | 40.69362 | -74.17317 | 22 ft | 1 kts | 35° |
| 2026-05-05 04:00 | 40.69369 | -74.17308 | 22 ft | 2 kts | 40° |
| 2026-05-05 04:01 | 40.69376 | -74.17300 | 22 ft | 0 kts | 42° |